sensor_id;sensor_type;location;lat;lon;timestamp;P1;durP1;ratioP1;P2;durP2;ratioP2
24305;SDS011;12423;48.768;8.850;2022-09-11T00:01:28;0.00;;;0.00;;
24305;SDS011;12423;48.768;8.850;2022-09-11T00:03:30;0.00;;;0.00;;
24305;SDS011;12423;48.768;8.850;2022-09-11T00:05:31;0.00;;;0.00;;
24305;SDS011;12423;48.768;8.850;2022-09-11T00:07:33;0.00;;;0.00;;
24305;SDS011;12423;48.768;8.850;2022-09-11T00:09:34;0.00;;;0.00;;
24305;SDS011;12423;48.768;8.850;2022-09-11T00:11:40;0.00;;;0.00;;
24305;SDS011;12423;48.768;8.850;2022-09-11T00:13:42;0.00;;;0.00;;
24305;SDS011;12423;48.768;8.850;2022-09-11T00:15:46;0.00;;;0.00;;
24305;SDS011;12423;48.768;8.850;2022-09-11T00:17:49;0.00;;;0.00;;
24305;SDS011;12423;48.768;8.850;2022-09-11T00:19:50;0.00;;;0.00;;
24305;SDS011;12423;48.768;8.850;2022-09-11T00:21:51;0.00;;;0.00;;
24305;SDS011;12423;48.768;8.850;2022-09-11T00:23:56;0.32;;;0.32;;
24305;SDS011;12423;48.768;8.850;2022-09-11T00:26:01;0.00;;;0.00;;
24305;SDS011;12423;48.768;8.850;2022-09-11T00:28:03;0.00;;;0.00;;
24305;SDS011;12423;48.768;8.850;2022-09-11T00:30:04;0.00;;;0.00;;
24305;SDS011;12423;48.768;8.850;2022-09-11T00:32:05;0.00;;;0.00;;
24305;SDS011;12423;48.768;8.850;2022-09-11T00:34:06;0.00;;;0.00;;
24305;SDS011;12423;48.768;8.850;2022-09-11T00:36:09;0.00;;;0.00;;
24305;SDS011;12423;48.768;8.850;2022-09-11T00:38:12;0.05;;;0.05;;
24305;SDS011;12423;48.768;8.850;2022-09-11T00:40:14;0.00;;;0.00;;
24305;SDS011;12423;48.768;8.850;2022-09-11T00:42:16;0.00;;;0.00;;
24305;SDS011;12423;48.768;8.850;2022-09-11T00:46:18;0.10;;;0.10;;
24305;SDS011;12423;48.768;8.850;2022-09-11T00:48:20;0.00;;;0.00;;
24305;SDS011;12423;48.768;8.850;2022-09-11T00:50:25;0.00;;;0.00;;
24305;SDS011;12423;48.768;8.850;2022-09-11T00:52:29;0.00;;;0.00;;
24305;SDS011;12423;48.768;8.850;2022-09-11T00:54:34;0.00;;;0.00;;
24305;SDS011;12423;48.768;8.850;2022-09-11T00:56:41;0.05;;;0.05;;
24305;SDS011;12423;48.768;8.850;2022-09-11T00:58:43;0.00;;;0.00;;
24305;SDS011;12423;48.768;8.850;2022-09-11T01:00:48;0.00;;;0.00;;
24305;SDS011;12423;48.768;8.850;2022-09-11T01:02:52;0.00;;;0.00;;
24305;SDS011;12423;48.768;8.850;2022-09-11T01:04:55;0.05;;;0.05;;
24305;SDS011;12423;48.768;8.850;2022-09-11T01:06:57;0.03;;;0.03;;
24305;SDS011;12423;48.768;8.850;2022-09-11T01:08:59;0.00;;;0.00;;
24305;SDS011;12423;48.768;8.850;2022-09-11T01:15:35;0.00;;;0.00;;
24305;SDS011;12423;48.768;8.850;2022-09-11T01:20:46;0.10;;;0.10;;
24305;SDS011;12423;48.768;8.850;2022-09-11T01:27:51;0.08;;;0.08;;
24305;SDS011;12423;48.768;8.850;2022-09-11T01:29:55;0.00;;;0.00;;
24305;SDS011;12423;48.768;8.850;2022-09-11T01:32:03;0.03;;;0.03;;
24305;SDS011;12423;48.768;8.850;2022-09-11T01:34:14;0.20;;;0.20;;
24305;SDS011;12423;48.768;8.850;2022-09-11T01:36:44;0.00;;;0.00;;
24305;SDS011;12423;48.768;8.850;2022-09-11T01:38:54;0.00;;;0.00;;
24305;SDS011;12423;48.768;8.850;2022-09-11T01:41:05;0.08;;;0.08;;
24305;SDS011;12423;48.768;8.850;2022-09-11T01:43:12;0.28;;;0.28;;
24305;SDS011;12423;48.768;8.850;2022-09-11T01:45:18;0.17;;;0.17;;
24305;SDS011;12423;48.768;8.850;2022-09-11T01:47:20;0.10;;;0.10;;
24305;SDS011;12423;48.768;8.850;2022-09-11T01:51:35;1.17;;;1.08;;
24305;SDS011;12423;48.768;8.850;2022-09-11T01:53:39;0.00;;;0.00;;
24305;SDS011;12423;48.768;8.850;2022-09-11T01:55:47;0.90;;;0.60;;
24305;SDS011;12423;48.768;8.850;2022-09-11T01:57:57;0.05;;;0.05;;
24305;SDS011;12423;48.768;8.850;2022-09-11T02:00:05;0.03;;;0.03;;
24305;SDS011;12423;48.768;8.850;2022-09-11T02:02:17;0.20;;;0.20;;
24305;SDS011;12423;48.768;8.850;2022-09-11T02:04:31;0.10;;;0.10;;
24305;SDS011;12423;48.768;8.850;2022-09-11T02:09:07;0.10;;;0.10;;
24305;SDS011;12423;48.768;8.850;2022-09-11T02:11:13;0.00;;;0.00;;
24305;SDS011;12423;48.768;8.850;2022-09-11T02:13:21;0.00;;;0.00;;
24305;SDS011;12423;48.768;8.850;2022-09-11T02:15:30;0.10;;;0.10;;
24305;SDS011;12423;48.768;8.850;2022-09-11T02:17:41;0.00;;;0.00;;
24305;SDS011;12423;48.768;8.850;2022-09-11T02:19:51;0.28;;;0.28;;
24305;SDS011;12423;48.768;8.850;2022-09-11T02:21:55;0.10;;;0.10;;
24305;SDS011;12423;48.768;8.850;2022-09-11T02:23:58;0.00;;;0.00;;
24305;SDS011;12423;48.768;8.850;2022-09-11T02:26:01;0.05;;;0.05;;
24305;SDS011;12423;48.768;8.850;2022-09-11T02:28:04;0.10;;;0.10;;
24305;SDS011;12423;48.768;8.850;2022-09-11T02:30:05;0.10;;;0.10;;
24305;SDS011;12423;48.768;8.850;2022-09-11T02:32:07;0.10;;;0.10;;
24305;SDS011;12423;48.768;8.850;2022-09-11T02:34:10;0.00;;;0.00;;
24305;SDS011;12423;48.768;8.850;2022-09-11T02:36:23;0.00;;;0.00;;
24305;SDS011;12423;48.768;8.850;2022-09-11T02:38:28;0.00;;;0.00;;
24305;SDS011;12423;48.768;8.850;2022-09-11T02:40:47;0.10;;;0.10;;
24305;SDS011;12423;48.768;8.850;2022-09-11T02:43:22;0.00;;;0.00;;
24305;SDS011;12423;48.768;8.850;2022-09-11T02:45:55;0.00;;;0.00;;
24305;SDS011;12423;48.768;8.850;2022-09-11T02:52:57;0.00;;;0.00;;
24305;SDS011;12423;48.768;8.850;2022-09-11T02:55:20;0.22;;;0.22;;
24305;SDS011;12423;48.768;8.850;2022-09-11T02:57:46;0.00;;;0.00;;
24305;SDS011;12423;48.768;8.850;2022-09-11T02:59:56;0.10;;;0.10;;
24305;SDS011;12423;48.768;8.850;2022-09-11T03:02:06;0.08;;;0.08;;
24305;SDS011;12423;48.768;8.850;2022-09-11T03:04:12;0.10;;;0.10;;
24305;SDS011;12423;48.768;8.850;2022-09-11T03:06:18;0.43;;;0.38;;
24305;SDS011;12423;48.768;8.850;2022-09-11T03:10:25;0.05;;;0.05;;
24305;SDS011;12423;48.768;8.850;2022-09-11T03:12:27;0.13;;;0.13;;
24305;SDS011;12423;48.768;8.850;2022-09-11T03:14:28;0.20;;;0.20;;
24305;SDS011;12423;48.768;8.850;2022-09-11T03:16:29;1.20;;;0.47;;
24305;SDS011;12423;48.768;8.850;2022-09-11T03:18:30;0.00;;;0.00;;
24305;SDS011;12423;48.768;8.850;2022-09-11T03:20:32;0.00;;;0.00;;
24305;SDS011;12423;48.768;8.850;2022-09-11T03:22:34;0.05;;;0.05;;
24305;SDS011;12423;48.768;8.850;2022-09-11T03:24:37;0.10;;;0.10;;
24305;SDS011;12423;48.768;8.850;2022-09-11T03:26:39;0.00;;;0.00;;
24305;SDS011;12423;48.768;8.850;2022-09-11T03:28:41;0.00;;;0.00;;
24305;SDS011;12423;48.768;8.850;2022-09-11T03:30:43;0.30;;;0.30;;
24305;SDS011;12423;48.768;8.850;2022-09-11T03:32:44;0.38;;;0.38;;
24305;SDS011;12423;48.768;8.850;2022-09-11T03:34:46;2.08;;;0.73;;
24305;SDS011;12423;48.768;8.850;2022-09-11T03:36:48;0.63;;;0.60;;
24305;SDS011;12423;48.768;8.850;2022-09-11T03:38:49;0.20;;;0.20;;
24305;SDS011;12423;48.768;8.850;2022-09-11T03:40:50;4.30;;;1.27;;
24305;SDS011;12423;48.768;8.850;2022-09-11T03:42:52;0.03;;;0.03;;
24305;SDS011;12423;48.768;8.850;2022-09-11T03:44:53;0.10;;;0.10;;
24305;SDS011;12423;48.768;8.850;2022-09-11T03:46:54;0.93;;;0.35;;
24305;SDS011;12423;48.768;8.850;2022-09-11T03:48:55;8.40;;;2.45;;
24305;SDS011;12423;48.768;8.850;2022-09-11T03:50:56;0.00;;;0.00;;
24305;SDS011;12423;48.768;8.850;2022-09-11T03:52:58;0.20;;;0.20;;
24305;SDS011;12423;48.768;8.850;2022-09-11T03:55:00;0.52;;;0.52;;
24305;SDS011;12423;48.768;8.850;2022-09-11T03:57:03;0.00;;;0.00;;
24305;SDS011;12423;48.768;8.850;2022-09-11T03:59:05;0.00;;;0.00;;
24305;SDS011;12423;48.768;8.850;2022-09-11T04:01:06;0.10;;;0.10;;
24305;SDS011;12423;48.768;8.850;2022-09-11T04:03:09;0.00;;;0.00;;
24305;SDS011;12423;48.768;8.850;2022-09-11T04:05:16;0.10;;;0.10;;
24305;SDS011;12423;48.768;8.850;2022-09-11T04:07:17;0.20;;;0.20;;
24305;SDS011;12423;48.768;8.850;2022-09-11T04:09:19;0.15;;;0.15;;
24305;SDS011;12423;48.768;8.850;2022-09-11T04:11:23;0.10;;;0.10;;
24305;SDS011;12423;48.768;8.850;2022-09-11T04:13:28;0.10;;;0.10;;
24305;SDS011;12423;48.768;8.850;2022-09-11T04:15:31;0.00;;;0.00;;
24305;SDS011;12423;48.768;8.850;2022-09-11T04:17:33;0.10;;;0.10;;
24305;SDS011;12423;48.768;8.850;2022-09-11T04:19:34;0.10;;;0.10;;
24305;SDS011;12423;48.768;8.850;2022-09-11T04:21:35;0.40;;;0.40;;
24305;SDS011;12423;48.768;8.850;2022-09-11T04:23:36;0.00;;;0.00;;
24305;SDS011;12423;48.768;8.850;2022-09-11T04:25:38;1.00;;;0.45;;
24305;SDS011;12423;48.768;8.850;2022-09-11T04:27:39;0.32;;;0.32;;
24305;SDS011;12423;48.768;8.850;2022-09-11T04:29:40;0.00;;;0.00;;
24305;SDS011;12423;48.768;8.850;2022-09-11T04:31:43;0.10;;;0.10;;
24305;SDS011;12423;48.768;8.850;2022-09-11T04:33:47;0.00;;;0.00;;
24305;SDS011;12423;48.768;8.850;2022-09-11T04:35:49;0.00;;;0.00;;
24305;SDS011;12423;48.768;8.850;2022-09-11T04:37:50;0.98;;;0.90;;
24305;SDS011;12423;48.768;8.850;2022-09-11T04:39:51;0.50;;;0.45;;
24305;SDS011;12423;48.768;8.850;2022-09-11T04:41:53;0.00;;;0.00;;
24305;SDS011;12423;48.768;8.850;2022-09-11T04:43:55;0.30;;;0.30;;
24305;SDS011;12423;48.768;8.850;2022-09-11T04:45:59;0.22;;;0.22;;
24305;SDS011;12423;48.768;8.850;2022-09-11T04:48:10;0.17;;;0.17;;
24305;SDS011;12423;48.768;8.850;2022-09-11T04:50:11;0.35;;;0.35;;
24305;SDS011;12423;48.768;8.850;2022-09-11T04:52:13;0.10;;;0.10;;
24305;SDS011;12423;48.768;8.850;2022-09-11T04:54:15;0.10;;;0.10;;
24305;SDS011;12423;48.768;8.850;2022-09-11T04:56:19;0.52;;;0.52;;
24305;SDS011;12423;48.768;8.850;2022-09-11T04:58:23;0.20;;;0.20;;
24305;SDS011;12423;48.768;8.850;2022-09-11T05:00:25;0.00;;;0.00;;
24305;SDS011;12423;48.768;8.850;2022-09-11T05:02:27;0.10;;;0.10;;
24305;SDS011;12423;48.768;8.850;2022-09-11T05:04:28;0.22;;;0.22;;
24305;SDS011;12423;48.768;8.850;2022-09-11T05:06:30;0.85;;;0.85;;
24305;SDS011;12423;48.768;8.850;2022-09-11T05:08:34;0.70;;;0.70;;
24305;SDS011;12423;48.768;8.850;2022-09-11T05:10:37;0.30;;;0.17;;
24305;SDS011;12423;48.768;8.850;2022-09-11T05:12:38;0.00;;;0.00;;
24305;SDS011;12423;48.768;8.850;2022-09-11T05:14:41;0.05;;;0.05;;
24305;SDS011;12423;48.768;8.850;2022-09-11T05:16:42;0.20;;;0.20;;
24305;SDS011;12423;48.768;8.850;2022-09-11T05:18:49;0.00;;;0.00;;
24305;SDS011;12423;48.768;8.850;2022-09-11T05:21:05;0.00;;;0.00;;
24305;SDS011;12423;48.768;8.850;2022-09-11T05:23:07;0.22;;;0.22;;
24305;SDS011;12423;48.768;8.850;2022-09-11T05:25:11;0.00;;;0.00;;
24305;SDS011;12423;48.768;8.850;2022-09-11T05:27:13;0.65;;;0.45;;
24305;SDS011;12423;48.768;8.850;2022-09-11T05:29:14;0.00;;;0.00;;
24305;SDS011;12423;48.768;8.850;2022-09-11T05:31:24;0.00;;;0.00;;
24305;SDS011;12423;48.768;8.850;2022-09-11T05:33:26;0.25;;;0.25;;
24305;SDS011;12423;48.768;8.850;2022-09-11T05:35:27;0.10;;;0.10;;
24305;SDS011;12423;48.768;8.850;2022-09-11T05:37:29;0.25;;;0.25;;
24305;SDS011;12423;48.768;8.850;2022-09-11T05:39:31;0.00;;;0.00;;
24305;SDS011;12423;48.768;8.850;2022-09-11T05:41:34;0.03;;;0.03;;
24305;SDS011;12423;48.768;8.850;2022-09-11T05:43:36;0.10;;;0.10;;
24305;SDS011;12423;48.768;8.850;2022-09-11T05:45:38;0.10;;;0.10;;
24305;SDS011;12423;48.768;8.850;2022-09-11T05:47:39;0.17;;;0.17;;
24305;SDS011;12423;48.768;8.850;2022-09-11T05:49:40;0.65;;;0.52;;
24305;SDS011;12423;48.768;8.850;2022-09-11T05:51:41;0.17;;;0.17;;
24305;SDS011;12423;48.768;8.850;2022-09-11T05:53:42;0.08;;;0.08;;
24305;SDS011;12423;48.768;8.850;2022-09-11T05:55:45;0.10;;;0.10;;
24305;SDS011;12423;48.768;8.850;2022-09-11T05:57:46;0.10;;;0.10;;
24305;SDS011;12423;48.768;8.850;2022-09-11T05:59:49;0.20;;;0.20;;
24305;SDS011;12423;48.768;8.850;2022-09-11T06:01:51;0.08;;;0.08;;
24305;SDS011;12423;48.768;8.850;2022-09-11T06:04:03;1.30;;;0.30;;
24305;SDS011;12423;48.768;8.850;2022-09-11T06:06:10;0.13;;;0.13;;
24305;SDS011;12423;48.768;8.850;2022-09-11T06:08:12;0.20;;;0.20;;
24305;SDS011;12423;48.768;8.850;2022-09-11T06:10:14;0.30;;;0.28;;
24305;SDS011;12423;48.768;8.850;2022-09-11T06:12:16;0.03;;;0.03;;
24305;SDS011;12423;48.768;8.850;2022-09-11T06:14:19;0.57;;;0.57;;
24305;SDS011;12423;48.768;8.850;2022-09-11T06:16:21;0.22;;;0.22;;
24305;SDS011;12423;48.768;8.850;2022-09-11T06:18:25;0.08;;;0.08;;
24305;SDS011;12423;48.768;8.850;2022-09-11T06:20:27;0.20;;;0.20;;
24305;SDS011;12423;48.768;8.850;2022-09-11T06:22:28;2.10;;;1.55;;
24305;SDS011;12423;48.768;8.850;2022-09-11T06:24:32;0.10;;;0.10;;
24305;SDS011;12423;48.768;8.850;2022-09-11T06:26:33;0.00;;;0.00;;
24305;SDS011;12423;48.768;8.850;2022-09-11T06:28:35;0.85;;;0.55;;
24305;SDS011;12423;48.768;8.850;2022-09-11T06:30:37;0.00;;;0.00;;
24305;SDS011;12423;48.768;8.850;2022-09-11T06:32:38;0.10;;;0.10;;
24305;SDS011;12423;48.768;8.850;2022-09-11T06:34:39;0.20;;;0.20;;
24305;SDS011;12423;48.768;8.850;2022-09-11T06:36:44;0.20;;;0.20;;
24305;SDS011;12423;48.768;8.850;2022-09-11T06:38:45;0.10;;;0.10;;
24305;SDS011;12423;48.768;8.850;2022-09-11T06:40:48;0.13;;;0.13;;
24305;SDS011;12423;48.768;8.850;2022-09-11T06:42:51;0.40;;;0.17;;
24305;SDS011;12423;48.768;8.850;2022-09-11T06:44:56;0.00;;;0.00;;
24305;SDS011;12423;48.768;8.850;2022-09-11T06:46:58;0.00;;;0.00;;
24305;SDS011;12423;48.768;8.850;2022-09-11T06:48:59;0.28;;;0.28;;
24305;SDS011;12423;48.768;8.850;2022-09-11T06:51:04;0.55;;;0.55;;
24305;SDS011;12423;48.768;8.850;2022-09-11T06:53:07;0.30;;;0.13;;
24305;SDS011;12423;48.768;8.850;2022-09-11T06:55:12;0.10;;;0.10;;
24305;SDS011;12423;48.768;8.850;2022-09-11T06:57:15;0.10;;;0.10;;
24305;SDS011;12423;48.768;8.850;2022-09-11T06:59:16;0.40;;;0.40;;
24305;SDS011;12423;48.768;8.850;2022-09-11T07:01:18;0.13;;;0.13;;
24305;SDS011;12423;48.768;8.850;2022-09-11T07:03:28;0.13;;;0.13;;
24305;SDS011;12423;48.768;8.850;2022-09-11T07:05:29;1.38;;;0.85;;
24305;SDS011;12423;48.768;8.850;2022-09-11T07:07:34;0.10;;;0.10;;
24305;SDS011;12423;48.768;8.850;2022-09-11T07:09:36;0.05;;;0.05;;
24305;SDS011;12423;48.768;8.850;2022-09-11T07:11:37;0.03;;;0.03;;
24305;SDS011;12423;48.768;8.850;2022-09-11T07:13:43;0.10;;;0.10;;
24305;SDS011;12423;48.768;8.850;2022-09-11T07:15:44;0.00;;;0.00;;
24305;SDS011;12423;48.768;8.850;2022-09-11T07:17:50;0.30;;;0.30;;
24305;SDS011;12423;48.768;8.850;2022-09-11T07:19:51;0.10;;;0.10;;
24305;SDS011;12423;48.768;8.850;2022-09-11T07:21:52;0.43;;;0.43;;
24305;SDS011;12423;48.768;8.850;2022-09-11T07:23:56;0.00;;;0.00;;
24305;SDS011;12423;48.768;8.850;2022-09-11T07:26:00;1.20;;;0.45;;
24305;SDS011;12423;48.768;8.850;2022-09-11T07:28:03;2.60;;;0.40;;
24305;SDS011;12423;48.768;8.850;2022-09-11T07:30:05;0.20;;;0.20;;
24305;SDS011;12423;48.768;8.850;2022-09-11T07:32:11;0.10;;;0.10;;
24305;SDS011;12423;48.768;8.850;2022-09-11T07:34:13;0.10;;;0.10;;
24305;SDS011;12423;48.768;8.850;2022-09-11T07:36:17;0.20;;;0.20;;
24305;SDS011;12423;48.768;8.850;2022-09-11T07:38:27;0.00;;;0.00;;
24305;SDS011;12423;48.768;8.850;2022-09-11T07:40:29;0.70;;;0.43;;
24305;SDS011;12423;48.768;8.850;2022-09-11T07:42:33;0.30;;;0.30;;
24305;SDS011;12423;48.768;8.850;2022-09-11T07:44:34;0.13;;;0.13;;
24305;SDS011;12423;48.768;8.850;2022-09-11T07:46:36;0.57;;;0.57;;
24305;SDS011;12423;48.768;8.850;2022-09-11T07:48:41;0.00;;;0.00;;
24305;SDS011;12423;48.768;8.850;2022-09-11T07:50:53;0.28;;;0.28;;
24305;SDS011;12423;48.768;8.850;2022-09-11T07:53:05;1.13;;;0.70;;
24305;SDS011;12423;48.768;8.850;2022-09-11T07:55:06;0.10;;;0.10;;
24305;SDS011;12423;48.768;8.850;2022-09-11T07:57:09;0.10;;;0.10;;
24305;SDS011;12423;48.768;8.850;2022-09-11T07:59:12;0.25;;;0.25;;
24305;SDS011;12423;48.768;8.850;2022-09-11T08:01:18;0.55;;;0.55;;
24305;SDS011;12423;48.768;8.850;2022-09-11T08:03:21;0.30;;;0.30;;
24305;SDS011;12423;48.768;8.850;2022-09-11T08:05:23;0.00;;;0.00;;
24305;SDS011;12423;48.768;8.850;2022-09-11T08:07:24;0.47;;;0.47;;
24305;SDS011;12423;48.768;8.850;2022-09-11T08:09:26;0.63;;;0.55;;
24305;SDS011;12423;48.768;8.850;2022-09-11T08:11:29;0.30;;;0.30;;
24305;SDS011;12423;48.768;8.850;2022-09-11T08:13:32;0.13;;;0.13;;
24305;SDS011;12423;48.768;8.850;2022-09-11T08:15:34;0.10;;;0.10;;
24305;SDS011;12423;48.768;8.850;2022-09-11T08:17:37;0.20;;;0.20;;
24305;SDS011;12423;48.768;8.850;2022-09-11T08:19:38;0.40;;;0.38;;
24305;SDS011;12423;48.768;8.850;2022-09-11T08:21:40;0.10;;;0.10;;
24305;SDS011;12423;48.768;8.850;2022-09-11T08:23:41;0.52;;;0.52;;
24305;SDS011;12423;48.768;8.850;2022-09-11T08:25:45;0.52;;;0.52;;
24305;SDS011;12423;48.768;8.850;2022-09-11T08:27:46;0.10;;;0.10;;
24305;SDS011;12423;48.768;8.850;2022-09-11T08:29:51;0.98;;;0.90;;
24305;SDS011;12423;48.768;8.850;2022-09-11T08:31:52;0.00;;;0.00;;
24305;SDS011;12423;48.768;8.850;2022-09-11T08:33:53;0.30;;;0.30;;
24305;SDS011;12423;48.768;8.850;2022-09-11T08:35:58;0.47;;;0.47;;
24305;SDS011;12423;48.768;8.850;2022-09-11T08:38:00;0.00;;;0.00;;
24305;SDS011;12423;48.768;8.850;2022-09-11T08:40:03;0.20;;;0.20;;
24305;SDS011;12423;48.768;8.850;2022-09-11T08:42:07;0.20;;;0.20;;
24305;SDS011;12423;48.768;8.850;2022-09-11T08:46:49;0.70;;;0.40;;
24305;SDS011;12423;48.768;8.850;2022-09-11T08:48:57;0.00;;;0.00;;
24305;SDS011;12423;48.768;8.850;2022-09-11T08:51:07;0.10;;;0.10;;
24305;SDS011;12423;48.768;8.850;2022-09-11T08:53:15;0.10;;;0.10;;
24305;SDS011;12423;48.768;8.850;2022-09-11T08:55:23;0.13;;;0.13;;
24305;SDS011;12423;48.768;8.850;2022-09-11T08:57:51;0.20;;;0.20;;
24305;SDS011;12423;48.768;8.850;2022-09-11T09:02:37;0.20;;;0.17;;
24305;SDS011;12423;48.768;8.850;2022-09-11T09:07:27;0.17;;;0.17;;
24305;SDS011;12423;48.768;8.850;2022-09-11T09:09:42;1.38;;;0.65;;
24305;SDS011;12423;48.768;8.850;2022-09-11T09:12:04;2.00;;;0.47;;
24305;SDS011;12423;48.768;8.850;2022-09-11T09:17:01;0.00;;;0.00;;
24305;SDS011;12423;48.768;8.850;2022-09-11T09:19:13;0.00;;;0.00;;
24305;SDS011;12423;48.768;8.850;2022-09-11T09:21:22;0.35;;;0.35;;
24305;SDS011;12423;48.768;8.850;2022-09-11T09:23:31;0.08;;;0.08;;
24305;SDS011;12423;48.768;8.850;2022-09-11T09:27:44;0.35;;;0.35;;
24305;SDS011;12423;48.768;8.850;2022-09-11T09:29:51;0.65;;;0.65;;
24305;SDS011;12423;48.768;8.850;2022-09-11T09:32:00;0.30;;;0.30;;
24305;SDS011;12423;48.768;8.850;2022-09-11T09:34:11;0.20;;;0.20;;
24305;SDS011;12423;48.768;8.850;2022-09-11T09:38:35;0.00;;;0.00;;
24305;SDS011;12423;48.768;8.850;2022-09-11T09:40:36;0.35;;;0.35;;
24305;SDS011;12423;48.768;8.850;2022-09-11T09:47:51;0.30;;;0.30;;
24305;SDS011;12423;48.768;8.850;2022-09-11T09:49:53;0.32;;;0.32;;
24305;SDS011;12423;48.768;8.850;2022-09-11T09:51:57;0.63;;;0.63;;
24305;SDS011;12423;48.768;8.850;2022-09-11T09:54:03;0.10;;;0.10;;
24305;SDS011;12423;48.768;8.850;2022-09-11T09:56:04;0.43;;;0.40;;
24305;SDS011;12423;48.768;8.850;2022-09-11T09:58:05;0.95;;;0.63;;
24305;SDS011;12423;48.768;8.850;2022-09-11T10:02:35;1.48;;;0.63;;
24305;SDS011;12423;48.768;8.850;2022-09-11T10:04:42;1.55;;;0.25;;
24305;SDS011;12423;48.768;8.850;2022-09-11T10:06:44;0.10;;;0.10;;
24305;SDS011;12423;48.768;8.850;2022-09-11T10:08:47;0.00;;;0.00;;
24305;SDS011;12423;48.768;8.850;2022-09-11T10:10:53;0.98;;;0.82;;
24305;SDS011;12423;48.768;8.850;2022-09-11T10:15:19;0.20;;;0.20;;
24305;SDS011;12423;48.768;8.850;2022-09-11T10:17:23;0.70;;;0.35;;
24305;SDS011;12423;48.768;8.850;2022-09-11T10:19:40;0.38;;;0.30;;
24305;SDS011;12423;48.768;8.850;2022-09-11T10:21:42;0.20;;;0.20;;
24305;SDS011;12423;48.768;8.850;2022-09-11T10:25:47;0.73;;;0.60;;
24305;SDS011;12423;48.768;8.850;2022-09-11T10:28:05;0.30;;;0.30;;
24305;SDS011;12423;48.768;8.850;2022-09-11T10:32:38;0.10;;;0.10;;
24305;SDS011;12423;48.768;8.850;2022-09-11T10:34:41;0.13;;;0.13;;
24305;SDS011;12423;48.768;8.850;2022-09-11T10:36:57;0.00;;;0.00;;
24305;SDS011;12423;48.768;8.850;2022-09-11T10:39:01;0.20;;;0.20;;
24305;SDS011;12423;48.768;8.850;2022-09-11T10:41:22;0.00;;;0.00;;
24305;SDS011;12423;48.768;8.850;2022-09-11T10:44:01;0.10;;;0.10;;
24305;SDS011;12423;48.768;8.850;2022-09-11T10:46:03;0.10;;;0.10;;
24305;SDS011;12423;48.768;8.850;2022-09-11T10:48:18;0.10;;;0.10;;
24305;SDS011;12423;48.768;8.850;2022-09-11T10:50:23;0.20;;;0.17;;
24305;SDS011;12423;48.768;8.850;2022-09-11T10:52:25;5.35;;;3.90;;
24305;SDS011;12423;48.768;8.850;2022-09-11T10:59:32;5.45;;;3.33;;
24305;SDS011;12423;48.768;8.850;2022-09-11T11:01:41;3.88;;;2.90;;
24305;SDS011;12423;48.768;8.850;2022-09-11T11:03:42;3.88;;;3.05;;
24305;SDS011;12423;48.768;8.850;2022-09-11T11:15:41;4.93;;;3.78;;
24305;SDS011;12423;48.768;8.850;2022-09-11T11:20:54;5.68;;;3.80;;
24305;SDS011;12423;48.768;8.850;2022-09-11T11:25:28;4.93;;;3.97;;
24305;SDS011;12423;48.768;8.850;2022-09-11T11:27:47;4.57;;;3.75;;
24305;SDS011;12423;48.768;8.850;2022-09-11T11:35:11;5.95;;;3.92;;
24305;SDS011;12423;48.768;8.850;2022-09-11T11:37:21;4.18;;;3.72;;
24305;SDS011;12423;48.768;8.850;2022-09-11T11:41:39;5.63;;;3.10;;
24305;SDS011;12423;48.768;8.850;2022-09-11T11:43:45;5.70;;;2.95;;
24305;SDS011;12423;48.768;8.850;2022-09-11T11:45:52;4.55;;;2.60;;
24305;SDS011;12423;48.768;8.850;2022-09-11T11:48:11;3.42;;;2.50;;
24305;SDS011;12423;48.768;8.850;2022-09-11T11:50:29;5.00;;;2.42;;
24305;SDS011;12423;48.768;8.850;2022-09-11T11:55:41;2.92;;;2.08;;
24305;SDS011;12423;48.768;8.850;2022-09-11T11:57:17;3.45;;;2.38;;
24305;SDS011;12423;48.768;8.850;2022-09-11T11:59:28;3.17;;;2.42;;
24305;SDS011;12423;48.768;8.850;2022-09-11T12:01:37;4.43;;;2.60;;
24305;SDS011;12423;48.768;8.850;2022-09-11T12:03:54;4.03;;;2.90;;
24305;SDS011;12423;48.768;8.850;2022-09-11T12:06:03;5.05;;;2.78;;
24305;SDS011;12423;48.768;8.850;2022-09-11T12:08:09;4.13;;;2.50;;
24305;SDS011;12423;48.768;8.850;2022-09-11T12:10:51;3.23;;;2.60;;
24305;SDS011;12423;48.768;8.850;2022-09-11T12:12:43;7.20;;;2.90;;
24305;SDS011;12423;48.768;8.850;2022-09-11T12:14:51;3.38;;;2.78;;
24305;SDS011;12423;48.768;8.850;2022-09-11T12:17:15;4.25;;;2.70;;
24305;SDS011;12423;48.768;8.850;2022-09-11T12:19:37;3.47;;;2.65;;
24305;SDS011;12423;48.768;8.850;2022-09-11T12:22:10;3.25;;;2.40;;
24305;SDS011;12423;48.768;8.850;2022-09-11T12:24:13;3.83;;;2.50;;
24305;SDS011;12423;48.768;8.850;2022-09-11T12:26:18;3.38;;;2.63;;
24305;SDS011;12423;48.768;8.850;2022-09-11T12:28:22;4.18;;;2.63;;
24305;SDS011;12423;48.768;8.850;2022-09-11T12:30:28;3.72;;;2.45;;
24305;SDS011;12423;48.768;8.850;2022-09-11T12:32:40;4.45;;;2.78;;
24305;SDS011;12423;48.768;8.850;2022-09-11T12:36:47;3.28;;;2.88;;
24305;SDS011;12423;48.768;8.850;2022-09-11T12:39:36;3.83;;;2.45;;
24305;SDS011;12423;48.768;8.850;2022-09-11T12:41:24;12.88;;;3.60;;
24305;SDS011;12423;48.768;8.850;2022-09-11T12:45:35;4.97;;;2.55;;
24305;SDS011;12423;48.768;8.850;2022-09-11T12:47:38;4.10;;;2.58;;
24305;SDS011;12423;48.768;8.850;2022-09-11T12:49:40;3.05;;;2.40;;
24305;SDS011;12423;48.768;8.850;2022-09-11T12:51:48;4.95;;;3.33;;
24305;SDS011;12423;48.768;8.850;2022-09-11T12:53:56;3.47;;;2.65;;
24305;SDS011;12423;48.768;8.850;2022-09-11T12:56:06;3.17;;;2.75;;
24305;SDS011;12423;48.768;8.850;2022-09-11T13:02:51;3.15;;;2.60;;
24305;SDS011;12423;48.768;8.850;2022-09-11T13:04:55;2.85;;;2.13;;
24305;SDS011;12423;48.768;8.850;2022-09-11T13:06:58;4.05;;;2.58;;
24305;SDS011;12423;48.768;8.850;2022-09-11T13:09:03;3.25;;;2.33;;
24305;SDS011;12423;48.768;8.850;2022-09-11T13:13:37;8.57;;;2.60;;
24305;SDS011;12423;48.768;8.850;2022-09-11T13:15:42;3.20;;;2.25;;
24305;SDS011;12423;48.768;8.850;2022-09-11T13:17:45;3.38;;;2.28;;
24305;SDS011;12423;48.768;8.850;2022-09-11T13:19:46;3.05;;;2.33;;
24305;SDS011;12423;48.768;8.850;2022-09-11T13:21:48;4.90;;;2.50;;
24305;SDS011;12423;48.768;8.850;2022-09-11T13:23:52;3.60;;;2.60;;
24305;SDS011;12423;48.768;8.850;2022-09-11T13:25:56;4.70;;;2.67;;
24305;SDS011;12423;48.768;8.850;2022-09-11T13:27:58;4.50;;;2.80;;
24305;SDS011;12423;48.768;8.850;2022-09-11T13:30:04;2.97;;;2.50;;
24305;SDS011;12423;48.768;8.850;2022-09-11T13:32:07;5.53;;;2.83;;
24305;SDS011;12423;48.768;8.850;2022-09-11T13:34:12;3.72;;;2.40;;
24305;SDS011;12423;48.768;8.850;2022-09-11T13:36:16;3.83;;;2.70;;
24305;SDS011;12423;48.768;8.850;2022-09-11T13:38:25;3.75;;;2.40;;
24305;SDS011;12423;48.768;8.850;2022-09-11T13:40:33;4.80;;;2.30;;
24305;SDS011;12423;48.768;8.850;2022-09-11T13:42:41;4.28;;;2.72;;
24305;SDS011;12423;48.768;8.850;2022-09-11T13:44:43;6.25;;;2.75;;
24305;SDS011;12423;48.768;8.850;2022-09-11T13:46:48;3.78;;;2.75;;
24305;SDS011;12423;48.768;8.850;2022-09-11T13:48:52;3.35;;;2.70;;
24305;SDS011;12423;48.768;8.850;2022-09-11T13:50:57;4.28;;;3.17;;
24305;SDS011;12423;48.768;8.850;2022-09-11T13:52:58;5.10;;;2.97;;
24305;SDS011;12423;48.768;8.850;2022-09-11T13:55:07;5.75;;;3.40;;
24305;SDS011;12423;48.768;8.850;2022-09-11T13:57:19;4.88;;;2.88;;
24305;SDS011;12423;48.768;8.850;2022-09-11T13:59:31;4.45;;;2.67;;
24305;SDS011;12423;48.768;8.850;2022-09-11T14:01:56;3.40;;;2.60;;
24305;SDS011;12423;48.768;8.850;2022-09-11T14:04:01;6.60;;;2.90;;
24305;SDS011;12423;48.768;8.850;2022-09-11T14:06:12;4.07;;;2.83;;
24305;SDS011;12423;48.768;8.850;2022-09-11T14:15:08;4.65;;;3.13;;
24305;SDS011;12423;48.768;8.850;2022-09-11T14:17:22;3.90;;;3.00;;
24305;SDS011;12423;48.768;8.850;2022-09-11T14:19:24;6.43;;;3.20;;
24305;SDS011;12423;48.768;8.850;2022-09-11T14:21:35;5.55;;;3.63;;